Zirfaea — PBZV — position and weather

sailwx.info

Track history (hours):
 
Tides and Currents Weather Stations Pressure Air Temp Water Temp Dewpoint Dewpoint Depression Visibility Wind Speed Wind Dir Waves Ship Positions

Oceanographic research ship Zirfaea (Netherlands)

Detailed information on ship capabilities available from University of Delaware's Ocean Information Center.

Last reported at 2019-Jun-19 21:26 UTC. Time now 2019-Jun-19 21:47 UTC.
Position N 51°54' E 003°38'.

Length 63 m; draft 3.9 m.

Type: Law enforcement. MMSI: 246096000.

Date/timePositionNaut miles runAvg speedWind from/ knotsBaromVisibWave heightAir tempDewpointWater temp
2019-Jun-19 21:26N 51°54' E 003°38'0 0.0
2019-Jun-19 19:51N 51°54' E 003°38'0 0.1
2019-Jun-19 19:26N 51°54' E 003°38'0 0.0
2019-Jun-19 18:56N 51°54' E 003°38'0 0.0
2019-Jun-19 18:29N 51°54' E 003°38'0 0.0
2019-Jun-19 17:50N 51°54' E 003°38'0 0.0
2019-Jun-19 17:20N 51°54' E 003°38'2 4.1
2019-Jun-19 16:57N 51°56' E 003°38'3 6.4
2019-Jun-19 16:30N 51°59' E 003°36'3 6.2
2019-Jun-19 16:00N 51°60' E 003°32'5 8.9
2019-Jun-19 15:27N 51°59' E 003°24'1 2.7
2019-Jun-19 15:00N 52°01' E 003°23'0 0.7
2019-Jun-19 14:30N 52°00' E 003°24'1 1.5
2019-Jun-19 14:00N 52°01' E 003°24'0 0.8
2019-Jun-19 13:30N 52°01' E 003°24'4 8.0
2019-Jun-19 12:58N 51°57' E 003°23'8 9.4
2019-Jun-19 12:04N 51°49' E 003°18'2 8.9
2019-Jun-19 11:49N 51°46' E 003°17'4 8.7
2019-Jun-19 11:20N 51°42' E 003°18'3 4.3
2019-Jun-19 10:37N 51°39' E 003°18'0 0.2
2019-Jun-19 10:17N 51°39' E 003°18'0 0.7
2019-Jun-19 09:51N 51°39' E 003°17'1 1.3
2019-Jun-19 09:11N 51°40' E 003°17'1 1.9
2019-Jun-19 08:47N 51°39' E 003°17'1 4.9
2019-Jun-19 08:30N 51°39' E 003°15'3 5.0
2019-Jun-19 07:57N 51°37' E 003°15'4 9.2
2019-Jun-19 07:30N 51°33' E 003°12'2 3.5
2019-Jun-19 07:00N 51°32' E 003°09'1 0.5
2019-Jun-19 05:43N 51°33' E 003°10'2 6.3
2019-Jun-19 05:25N 51°34' E 003°12'3 6.1
2019-Jun-19 04:59N 51°36' E 003°14'6 8.1
2019-Jun-19 04:15N 51°41' E 003°21'4 7.6
2019-Jun-19 03:44N 51°43' E 003°25'2 7.0
2019-Jun-19 03:25N 51°45' E 003°28'0 0.8
2019-Jun-19 02:56N 51°45' E 003°29'0 0.3
2019-Jun-19 01:47N 51°45' E 003°28'0 0.1
2019-Jun-19 01:29N 51°45' E 003°28'1 3.0
2019-Jun-19 01:00N 51°44' E 003°27'1 2.3
2019-Jun-19 00:30N 51°43' E 003°26'1 1.2
2019-Jun-18 23:37N 51°42' E 003°25'0 0.7
2019-Jun-18 23:29N 51°42' E 003°24'0 0.4
2019-Jun-18 22:57N 51°42' E 003°24'0 0.2
2019-Jun-18 22:30N 51°42' E 003°24'1 0.6
2019-Jun-18 21:05N 51°43' E 003°25'0 0.9
2019-Jun-18 20:58N 51°43' E 003°25'1 2.0
2019-Jun-18 20:29N 51°43' E 003°26'1 2.2
2019-Jun-18 20:00N 51°44' E 003°27'1 1.9
2019-Jun-18 19:31N 51°45' E 003°28'2 3.1
2019-Jun-18 19:00N 51°46' E 003°26'2 3.3
2019-Jun-18 18:30N 51°46' E 003°23'1 1.6
2019-Jun-18 18:00N 51°46' E 003°22'1 2.4
2019-Jun-18 17:30N 51°45' E 003°20'0 0.5
2019-Jun-18 17:00N 51°45' E 003°20'0 0.7
2019-Jun-18 16:30N 51°45' E 003°21'0 0.6
2019-Jun-18 15:46N 51°45' E 003°20'2 7.5
2019-Jun-18 15:30N 51°46' E 003°19'4 8.7
2019-Jun-18 15:00N 51°50' E 003°16'2 3.8
2019-Jun-18 14:30N 51°52' E 003°15'0 0.9
2019-Jun-18 14:01N 51°52' E 003°15'0 0.6
2019-Jun-18 13:30N 51°52' E 003°15'3 5.4
2019-Jun-18 13:00N 51°52' E 003°11'4 8.2
2019-Jun-18 12:30N 51°52' E 003°04'4 8.1
2019-Jun-18 12:01N 51°54' E 002°59'3 6.5
2019-Jun-18 11:30N 51°55' E 002°54'0 0.6
2019-Jun-18 11:00N 51°55' E 002°54'1 1.6
2019-Jun-18 10:30N 51°55' E 002°55'3 6.9
2019-Jun-18 10:00N 51°54' E 003°00'0 0.4
2019-Jun-18 09:31N 51°54' E 003°01'0 0.9
2019-Jun-18 09:00N 51°54' E 003°01'1 1.8
2019-Jun-18 08:30N 51°55' E 003°00'611.0
2019-Jun-18 08:00N 51°60' E 003°01'2 4.9
2019-Jun-18 07:30N 52°02' E 003°03'1 1.3
2019-Jun-18 07:00N 52°02' E 003°02'0 0.8
2019-Jun-18 06:30N 52°02' E 003°02'1 1.5
2019-Jun-18 06:00N 52°02' E 003°03'0 0.7
2019-Jun-18 05:29N 52°02' E 003°03'2 4.1
2019-Jun-18 05:00N 52°02' E 003°06'2 4.6
2019-Jun-18 04:30N 52°02' E 003°10'2 4.4
2019-Jun-18 04:00N 52°01' E 003°14'2 3.2
2019-Jun-18 03:30N 52°01' E 003°16'0 0.1
2019-Jun-18 03:00N 52°01' E 003°16'0 0.0
2019-Jun-18 02:30N 52°01' E 003°16'0 0.0
2019-Jun-18 02:00N 52°01' E 003°16'0 0.1
2019-Jun-18 01:30N 52°01' E 003°16'0 0.2
2019-Jun-18 01:00N 52°01' E 003°16'0 0.4
2019-Jun-18 00:30N 52°01' E 003°16'0 1.0
2019-Jun-18 00:00N 52°01' E 003°16'0 0.6
2019-Jun-17 23:30N 52°01' E 003°16'1 1.1
2019-Jun-17 23:00N 52°01' E 003°16'0 0.7
2019-Jun-17 22:30N 52°00' E 003°15'0 0.2
2019-Jun-17 22:00N 52°00' E 003°15'0 0.2
2019-Jun-17 21:48N 52°00' E 003°15'0 0.2
2019-Jun-17 21:45N 52°00' E 003°15'0 0.2
2019-Jun-17 21:37N 52°00' E 003°15'0 0.4
2019-Jun-17 21:13N 52°00' E 003°15'0 0.4
2019-Jun-17 21:00N 52°00' E 003°16'0 0.4
2019-Jun-17 20:20N 51°60' E 003°16'1 0.6
2019-Jun-17 19:13N 51°59' E 003°16'37 1.9
2019-Jun-16 23:30N 52°06' E 004°16'0 0.0
2019-Jun-16 23:00N 52°06' E 004°16'0 0.0
2019-Jun-16 22:30N 52°06' E 004°16'0 0.0
2019-Jun-16 22:00N 52°06' E 004°16'0 0.0
2019-Jun-16 21:30N 52°06' E 004°16'0 0.0
2019-Jun-16 21:00N 52°06' E 004°16'0 0.0
2019-Jun-16 20:30N 52°06' E 004°16'0 0.0
2019-Jun-16 20:00N 52°06' E 004°16'0 0.0
2019-Jun-16 19:30N 52°06' E 004°16'0 0.0
2019-Jun-16 19:00N 52°06' E 004°16'0 0.0
2019-Jun-16 18:30N 52°06' E 004°16'0 0.0
2019-Jun-16 18:00N 52°06' E 004°16'0 0.0
2019-Jun-16 17:30N 52°06' E 004°16'0 0.0
2019-Jun-16 17:00N 52°06' E 004°16'0 0.0
2019-Jun-16 16:30N 52°06' E 004°16'0 0.0
2019-Jun-16 16:00N 52°06' E 004°16'0 0.0
2019-Jun-16 15:30N 52°06' E 004°16'0 0.0
2019-Jun-16 15:00N 52°06' E 004°16'0 0.0
2019-Jun-16 14:30N 52°06' E 004°16'0 0.0
2019-Jun-16 14:00N 52°06' E 004°16'0 0.0
2019-Jun-16 13:30N 52°06' E 004°16'0 0.0
2019-Jun-16 13:00N 52°06' E 004°16'0 0.0
2019-Jun-16 12:30N 52°06' E 004°16'0 0.0
2019-Jun-16 12:00N 52°06' E 004°16'0 0.0
2019-Jun-16 11:30N 52°06' E 004°16'0 0.0
2019-Jun-16 11:00N 52°06' E 004°16'0 0.0
2019-Jun-16 10:30N 52°06' E 004°16'0 0.0
2019-Jun-16 10:00N 52°06' E 004°16'0 0.0
2019-Jun-16 09:30N 52°06' E 004°16'0 0.0
2019-Jun-16 09:00N 52°06' E 004°16'0 0.0
2019-Jun-16 08:30N 52°06' E 004°16'0 0.0
2019-Jun-16 08:00N 52°06' E 004°16'0 0.0
2019-Jun-16 07:30N 52°06' E 004°16'0 0.0
2019-Jun-16 07:00N 52°06' E 004°16'0 0.0
2019-Jun-16 06:30N 52°06' E 004°16'0 0.0
2019-Jun-16 06:00N 52°06' E 004°16'0 0.0
2019-Jun-16 05:30N 52°06' E 004°16'0 0.0
2019-Jun-16 05:00N 52°06' E 004°16'0 0.0
2019-Jun-16 04:27N 52°06' E 004°16'0 0.0
2019-Jun-16 04:00N 52°06' E 004°16'0 0.0
2019-Jun-16 03:30N 52°06' E 004°16'0 0.0
2019-Jun-16 03:00N 52°06' E 004°16'0 0.0
2019-Jun-16 02:30N 52°06' E 004°16'0 0.0
2019-Jun-16 02:00N 52°06' E 004°16'0 0.0
2019-Jun-16 01:30N 52°06' E 004°16'0 0.0
2019-Jun-16 01:00N 52°06' E 004°16'0 0.0
2019-Jun-16 00:30N 52°06' E 004°16'0 0.0
2019-Jun-16 00:00N 52°06' E 004°16'0 0.0
2019-Jun-15 23:30N 52°06' E 004°16'0 0.0
2019-Jun-15 23:00N 52°06' E 004°16'0 0.0
2019-Jun-15 22:30N 52°06' E 004°16'0 0.0
2019-Jun-15 22:00N 52°06' E 004°16'0 0.0
2019-Jun-15 21:30N 52°06' E 004°16'0 0.0
2019-Jun-15 21:00N 52°06' E 004°16'0 0.0
2019-Jun-15 20:30N 52°06' E 004°16'0 0.0
2019-Jun-15 20:00N 52°06' E 004°16'0 0.0
2019-Jun-15 19:30N 52°06' E 004°16'0 0.0
2019-Jun-15 19:00N 52°06' E 004°16'0 0.0
2019-Jun-15 18:30N 52°06' E 004°16'0 0.0
2019-Jun-15 18:00N 52°06' E 004°16'0 0.0
2019-Jun-15 17:30N 52°06' E 004°16'0 0.0
2019-Jun-15 17:00N 52°06' E 004°16'0 0.0
2019-Jun-15 16:30N 52°06' E 004°16'0 0.0
2019-Jun-15 16:00N 52°06' E 004°16'0 0.0
2019-Jun-15 15:30N 52°06' E 004°16'0 0.0
2019-Jun-15 15:00N 52°06' E 004°16'0 0.0
2019-Jun-15 14:30N 52°06' E 004°16'0 0.0
2019-Jun-15 14:00N 52°06' E 004°16'0 0.0
2019-Jun-15 13:30N 52°06' E 004°16'0 0.0
2019-Jun-15 13:00N 52°06' E 004°16'0 0.0
2019-Jun-15 12:30N 52°06' E 004°16'0 0.0
2019-Jun-15 12:00N 52°06' E 004°16'0 0.0
2019-Jun-15 11:30N 52°06' E 004°16'0 0.0
2019-Jun-15 11:00N 52°06' E 004°16'0 0.0
2019-Jun-15 10:30N 52°06' E 004°16'0 0.0
2019-Jun-15 10:00N 52°06' E 004°16'0 0.0
2019-Jun-15 09:30N 52°06' E 004°16'0 0.0
2019-Jun-15 09:00N 52°06' E 004°16'0 0.0
2019-Jun-15 08:30N 52°06' E 004°16'0 0.0
2019-Jun-15 08:00N 52°06' E 004°16'0 0.0
2019-Jun-15 07:30N 52°06' E 004°16'0 0.0
2019-Jun-15 07:00N 52°06' E 004°16'0 0.0
2019-Jun-15 06:30N 52°06' E 004°16'0 0.0
2019-Jun-15 06:00N 52°06' E 004°16'0 0.0
2019-Jun-15 05:30N 52°06' E 004°16'0 0.0
2019-Jun-15 05:00N 52°06' E 004°16'0 0.0
2019-Jun-15 04:30N 52°06' E 004°16'0 0.0
2019-Jun-15 04:00N 52°06' E 004°16'0 0.0
2019-Jun-15 03:30N 52°06' E 004°16'0 0.0
2019-Jun-15 03:00N 52°06' E 004°16'0 0.0
2019-Jun-15 02:30N 52°06' E 004°16'0 0.0
2019-Jun-15 02:00N 52°06' E 004°16'0 0.0
2019-Jun-15 01:30N 52°06' E 004°16'0 0.0
2019-Jun-15 01:00N 52°06' E 004°16'0 0.0
2019-Jun-15 00:30N 52°06' E 004°16'0 0.0
2019-Jun-15 00:00N 52°06' E 004°16'0 0.0
2019-Jun-14 23:30N 52°06' E 004°16'0 0.0
2019-Jun-14 23:00N 52°06' E 004°16'0 0.0
2019-Jun-14 22:30N 52°06' E 004°16'0 0.0
2019-Jun-14 22:00N 52°06' E 004°16'0 0.0
2019-Jun-14 21:27N 52°06' E 004°16'0 0.0
2019-Jun-14 21:00N 52°06' E 004°16'0 0.0
2019-Jun-14 20:30N 52°06' E 004°16'0 0.0
2019-Jun-14 20:00N 52°06' E 004°16'0 0.0
2019-Jun-14 19:30N 52°06' E 004°16'0 0.0
2019-Jun-14 19:00N 52°06' E 004°16'0 0.0
2019-Jun-14 18:30N 52°06' E 004°16'0 0.0
2019-Jun-14 18:00N 52°06' E 004°16'0 0.0
2019-Jun-14 17:30N 52°06' E 004°16'0 0.0
2019-Jun-14 17:00N 52°06' E 004°16'0 0.0
2019-Jun-14 16:30N 52°06' E 004°16'0 0.0
2019-Jun-14 16:00N 52°06' E 004°16'0 0.0
2019-Jun-14 15:30N 52°06' E 004°16'0 0.0
2019-Jun-14 15:00N 52°06' E 004°16'0 0.0
2019-Jun-14 14:30N 52°06' E 004°16'0 0.0
2019-Jun-14 14:00N 52°06' E 004°16'0 0.0
2019-Jun-14 13:30N 52°06' E 004°16'0 0.0
2019-Jun-14 13:00N 52°06' E 004°16'0 0.0
2019-Jun-14 12:30N 52°06' E 004°16'0 0.0
2019-Jun-14 12:00N 52°06' E 004°16'0 0.0
2019-Jun-14 11:30N 52°06' E 004°16'0 0.0
2019-Jun-14 11:00N 52°06' E 004°16'0 0.0
2019-Jun-14 10:30N 52°06' E 004°16'0 0.0
2019-Jun-14 10:00N 52°06' E 004°16'0 0.1
2019-Jun-14 09:30N 52°06' E 004°16'3 5.8
2019-Jun-14 09:00N 52°05' E 004°11'5 9.4
2019-Jun-14 08:30N 52°03' E 004°05'5 9.5
2019-Jun-14 08:00N 51°60' E 003°59'4 7.9
2019-Jun-14 07:30N 51°57' E 003°55'4 8.7
2019-Jun-14 07:00N 51°53' E 003°52'1 2.8
2019-Jun-14 06:30N 51°52' E 003°50'2 3.1
2019-Jun-14 06:00N 51°51' E 003°49'4 8.3
2019-Jun-14 05:30N 51°49' E 003°43'10 7.9
2019-Jun-14 04:15N 51°43' E 003°30'6 6.8
2019-Jun-14 03:21N 51°38' E 003°23'410.2
2019-Jun-14 03:00N 51°35' E 003°24'6 4.1
2019-Jun-14 01:39N 51°38' E 003°17'2 9.0
2019-Jun-14 01:24N 51°39' E 003°14'2 3.6
2019-Jun-14 00:53N 51°41' E 003°12'7 8.4
2019-Jun-14 00:00N 51°47' E 003°06'36 5.4
2019-Jun-13 17:18N 52°23' E 003°12'67 7.4
2019-Jun-13 08:11N 53°12' E 004°29'2 9.8
2019-Jun-13 08:01N 53°11' E 004°32'19 9.0
2019-Jun-13 05:52N 53°24' E 004°57'3 9.1
2019-Jun-13 05:31N 53°26' E 005°01'4 6.5
2019-Jun-13 04:56N 53°28' E 005°06'58 3.6
2019-Jun-12 12:51N 54°12' E 006°09'16 6.5
2019-Jun-12 10:20N 53°57' E 006°18'15 7.3
2019-Jun-12 08:14N 53°45' E 006°03'7 8.2
2019-Jun-12 07:22N 53°40' E 005°54'4 9.4
2019-Jun-12 06:58N 53°39' E 005°48'9 9.6
2019-Jun-12 06:02N 53°36' E 005°33'1 9.9
2019-Jun-12 05:53N 53°36' E 005°31'510.0
2019-Jun-12 05:20N 53°34' E 005°22'1310.4
2019-Jun-12 04:05N 53°29' E 005°02'311.1
2019-Jun-12 03:46N 53°27' E 004°57'2010.7
2019-Jun-12 01:55N 53°12' E 004°35'511.1
2019-Jun-12 01:30N 53°08' E 004°31'510.8
2019-Jun-12 01:00N 53°04' E 004°27'611.2
2019-Jun-12 00:29N 52°59' E 004°22'611.1
2019-Jun-11 23:56N 52°53' E 004°18'511.1
2019-Jun-11 23:28N 52°49' E 004°12'511.1
2019-Jun-11 23:00N 52°46' E 004°05'511.0
2019-Jun-11 22:30N 52°43' E 003°58'511.0
2019-Jun-11 22:00N 52°40' E 003°50'611.0
2019-Jun-11 21:27N 52°38' E 003°41'611.0
2019-Jun-11 20:57N 52°35' E 003°33'1 2.2
2019-Jun-11 20:30N 52°34' E 003°33'5 8.3
2019-Jun-11 19:53N 52°32' E 003°41'3 7.7
2019-Jun-11 19:26N 52°30' E 003°46'3 7.8
2019-Jun-11 19:00N 52°29' E 003°51'4 8.2
2019-Jun-11 18:30N 52°26' E 003°56'4 8.1
2019-Jun-11 18:00N 52°24' E 004°02'4 8.0
2019-Jun-11 17:30N 52°22' E 004°07'2 4.8
2019-Jun-11 17:00N 52°20' E 004°10'0 0.1
2019-Jun-11 16:30N 52°20' E 004°10'3 6.8
2019-Jun-11 16:00N 52°19' E 004°15'2 4.6
2019-Jun-11 15:31N 52°18' E 004°19'4 8.0
2019-Jun-11 15:01N 52°16' E 004°24'1 1.6
2019-Jun-11 14:30N 52°15' E 004°23'5 9.2
2019-Jun-11 14:00N 52°11' E 004°20'5 9.5
2019-Jun-11 13:30N 52°07' E 004°15'1 2.3
2019-Jun-11 13:00N 52°06' E 004°16'0 0.0
2019-Jun-11 12:30N 52°06' E 004°16'0 0.0
2019-Jun-11 12:00N 52°06' E 004°16'0 0.1
2019-Jun-11 11:30N 52°06' E 004°16'4 7.3
2019-Jun-11 11:01N 52°10' E 004°16'4 7.1
2019-Jun-11 10:30N 52°12' E 004°20'4 8.1
2019-Jun-11 10:01N 52°16' E 004°24'1 1.1
2019-Jun-11 09:31N 52°16' E 004°25'0 0.3
2019-Jun-11 09:01N 52°16' E 004°24'4 7.8
2019-Jun-11 08:30N 52°13' E 004°21'510.2
2019-Jun-11 08:00N 52°08' E 004°16'2 4.6
2019-Jun-11 07:29N 52°06' E 004°16'0 0.0
2019-Jun-11 06:59N 52°06' E 004°16'0 0.0
2019-Jun-11 06:29N 52°06' E 004°16'0 0.0
2019-Jun-11 05:59N 52°06' E 004°16'0 0.0
2019-Jun-11 05:29N 52°06' E 004°16'0 0.0
2019-Jun-11 04:59N 52°06' E 004°16'0 0.0
2019-Jun-11 04:29N 52°06' E 004°16'0 0.0
2019-Jun-11 03:59N 52°06' E 004°16'0 0.0
2019-Jun-11 03:29N 52°06' E 004°16'0 0.0
2019-Jun-11 02:59N 52°06' E 004°16'0 0.0
2019-Jun-11 02:29N 52°06' E 004°16'0 0.0
2019-Jun-11 01:59N 52°06' E 004°16'0 0.0
2019-Jun-11 01:29N 52°06' E 004°16'0 0.0
2019-Jun-11 00:59N 52°06' E 004°16'0 0.0
2019-Jun-11 00:26N 52°06' E 004°16'0 0.0
2019-Jun-10 23:59N 52°06' E 004°16'0 0.0
2019-Jun-10 23:29N 52°06' E 004°16'0 0.0
2019-Jun-10 22:59N 52°06' E 004°16'0 0.0
2019-Jun-10 22:29N 52°06' E 004°16'0 0.0
2019-Jun-10 21:59N 52°06' E 004°16'0 0.0
2019-Jun-10 21:29N 52°06' E 004°16'0 0.0
2019-Jun-10 20:59N 52°06' E 004°16'0 0.0
2019-Jun-10 20:26N 52°06' E 004°16'0 0.0
2019-Jun-10 19:59N 52°06' E 004°16'0 0.0
2019-Jun-10 19:29N 52°06' E 004°16'0 0.0
2019-Jun-10 18:59N 52°06' E 004°16'0 0.0
2019-Jun-10 18:29N 52°06' E 004°16'0 0.0
2019-Jun-10 17:59N 52°06' E 004°16'0 0.0
2019-Jun-10 17:29N 52°06' E 004°16'0 0.0
2019-Jun-10 16:59N 52°06' E 004°16'0 0.0
2019-Jun-10 16:29N 52°06' E 004°16'0 0.0
2019-Jun-10 15:56N 52°06' E 004°16'0 0.0
2019-Jun-10 15:29N 52°06' E 004°16'0 0.0
2019-Jun-10 14:59N 52°06' E 004°16'0 0.0
2019-Jun-10 14:29N 52°06' E 004°16'0 0.0
2019-Jun-10 13:59N 52°06' E 004°16'0 0.0
2019-Jun-10 13:29N 52°06' E 004°16'0 0.0
2019-Jun-10 12:59N 52°06' E 004°16'0 0.0
2019-Jun-10 12:29N 52°06' E 004°16'0 0.0
2019-Jun-10 11:59N 52°06' E 004°16'0 0.0
2019-Jun-10 11:29N 52°06' E 004°16'0 0.0
2019-Jun-10 10:59N 52°06' E 004°16'0 0.0
2019-Jun-10 10:29N 52°06' E 004°16'0 0.0
2019-Jun-10 09:59N 52°06' E 004°16'0 0.0
2019-Jun-10 09:26N 52°06' E 004°16'0 0.0
2019-Jun-10 08:59N 52°06' E 004°16'0 0.0
2019-Jun-10 08:29N 52°06' E 004°16'0 0.0
2019-Jun-10 07:59N 52°06' E 004°16'0 0.0
2019-Jun-10 07:29N 52°06' E 004°16'0 0.0
2019-Jun-10 06:59N 52°06' E 004°16'0 0.0
2019-Jun-10 06:29N 52°06' E 004°16'0 0.0
2019-Jun-10 05:59N 52°06' E 004°16'0 0.0
2019-Jun-10 05:29N 52°06' E 004°16'0 0.0
2019-Jun-10 04:59N 52°06' E 004°16'0 0.0
2019-Jun-10 04:29N 52°06' E 004°16'0 0.0
2019-Jun-10 03:59N 52°06' E 004°16'0 0.0
2019-Jun-10 03:29N 52°06' E 004°16'0 0.0
2019-Jun-10 02:59N 52°06' E 004°16'0 0.0
2019-Jun-10 02:29N 52°06' E 004°16'0 0.0
2019-Jun-10 01:59N 52°06' E 004°16'0 0.0
2019-Jun-10 01:29N 52°06' E 004°16'0 0.0
2019-Jun-10 00:59N 52°06' E 004°16'0 0.0
2019-Jun-10 00:29N 52°06' E 004°16'0 0.0
2019-Jun-09 23:59N 52°06' E 004°16'0 0.0
2019-Jun-09 23:29N 52°06' E 004°16'0 0.0
2019-Jun-09 22:59N 52°06' E 004°16'0 0.0
2019-Jun-09 22:29N 52°06' E 004°16'0 0.0
2019-Jun-09 21:59N 52°06' E 004°16'0 0.0
2019-Jun-09 21:29N 52°06' E 004°16'0 0.0
2019-Jun-09 20:59N 52°06' E 004°16'0 0.0
2019-Jun-09 20:29N 52°06' E 004°16'0 0.0
2019-Jun-09 19:59N 52°06' E 004°16'0 0.0
2019-Jun-09 19:29N 52°06' E 004°16'0 0.0
2019-Jun-09 18:56N 52°06' E 004°16'0 0.0
2019-Jun-09 18:29N 52°06' E 004°16'0 0.0
2019-Jun-09 17:59N 52°06' E 004°16'0 0.0
2019-Jun-09 17:29N 52°06' E 004°16'0 0.0
2019-Jun-09 16:59N 52°06' E 004°16'0 0.0
2019-Jun-09 16:29N 52°06' E 004°16'0 0.0
2019-Jun-09 15:56N 52°06' E 004°16'0 0.0
2019-Jun-09 15:29N 52°06' E 004°16'0 0.0
2019-Jun-09 14:59N 52°06' E 004°16'0 0.0
2019-Jun-09 14:29N 52°06' E 004°16'0 0.0
2019-Jun-09 13:59N 52°06' E 004°16'0 0.0
2019-Jun-09 13:29N 52°06' E 004°16'0 0.0
2019-Jun-09 12:59N 52°06' E 004°16'0 0.0
2019-Jun-09 12:29N 52°06' E 004°16'0 0.0
2019-Jun-09 11:59N 52°06' E 004°16'0 0.0
2019-Jun-09 11:29N 52°06' E 004°16'0 0.0
2019-Jun-09 10:59N 52°06' E 004°16'0 0.0
2019-Jun-09 10:29N 52°06' E 004°16'0 0.0
2019-Jun-09 09:59N 52°06' E 004°16'0 0.0
2019-Jun-09 09:29N 52°06' E 004°16'0 0.0
2019-Jun-09 08:59N 52°06' E 004°16'0 0.0
2019-Jun-09 08:29N 52°06' E 004°16'0 0.0
2019-Jun-09 07:59N 52°06' E 004°16'0 0.0
2019-Jun-09 07:29N 52°06' E 004°16'0 0.0
2019-Jun-09 06:59N 52°06' E 004°16'0 0.0
2019-Jun-09 06:29N 52°06' E 004°16'0 0.0
2019-Jun-09 05:59N 52°06' E 004°16'0 0.0
2019-Jun-09 05:29N 52°06' E 004°16'0 0.0
2019-Jun-09 04:59N 52°06' E 004°16'0 0.0
2019-Jun-09 03:59N 52°06' E 004°16'0 0.0
2019-Jun-09 03:29N 52°06' E 004°16'0 0.0
2019-Jun-09 02:59N 52°06' E 004°16'0 0.0
2019-Jun-09 02:29N 52°06' E 004°16'0 0.0
2019-Jun-09 01:59N 52°06' E 004°16'0 0.0
2019-Jun-09 01:29N 52°06' E 004°16'0 0.0
2019-Jun-09 00:59N 52°06' E 004°16'0 0.0
2019-Jun-09 00:29N 52°06' E 004°16'0 0.0
2019-Jun-08 23:56N 52°06' E 004°16'0 0.0
2019-Jun-08 23:29N 52°06' E 004°16'0 0.0
2019-Jun-08 22:56N 52°06' E 004°16'0 0.0
2019-Jun-08 22:29N 52°06' E 004°16'0 0.0
2019-Jun-08 21:59N 52°06' E 004°16'0 0.0
2019-Jun-08 21:29N 52°06' E 004°16'0 0.0
2019-Jun-08 20:59N 52°06' E 004°16'0 0.0
2019-Jun-08 20:29N 52°06' E 004°16'0 0.0
2019-Jun-08 19:59N 52°06' E 004°16'0 0.0
2019-Jun-08 19:29N 52°06' E 004°16'0 0.0
2019-Jun-08 18:59N 52°06' E 004°16'0 0.0
2019-Jun-08 18:29N 52°06' E 004°16'0 0.0
2019-Jun-08 17:59N 52°06' E 004°16'0 0.0
2019-Jun-08 17:29N 52°06' E 004°16'0 0.0
2019-Jun-08 16:59N 52°06' E 004°16'0 0.0
2019-Jun-08 16:29N 52°06' E 004°16'0 0.0
2019-Jun-08 15:59N 52°06' E 004°16'0 0.0
2019-Jun-08 15:29N 52°06' E 004°16'0 0.0
2019-Jun-08 14:59N 52°06' E 004°16'0 0.0
2019-Jun-08 14:29N 52°06' E 004°16'0 0.0
2019-Jun-08 13:59N 52°06' E 004°16'0 0.0
2019-Jun-08 13:29N 52°06' E 004°16'0 0.0
2019-Jun-08 12:59N 52°06' E 004°16'0 0.0
2019-Jun-08 12:29N 52°06' E 004°16'0 0.0
2019-Jun-08 11:59N 52°06' E 004°16'0 0.0
2019-Jun-08 11:29N 52°06' E 004°16'0 0.0
2019-Jun-08 10:59N 52°06' E 004°16'0 0.0
2019-Jun-08 10:29N 52°06' E 004°16'0 0.0
2019-Jun-08 09:59N 52°06' E 004°16'0 0.0
2019-Jun-08 09:29N 52°06' E 004°16'0 0.0
2019-Jun-08 08:59N 52°06' E 004°16'0 0.0
2019-Jun-08 08:29N 52°06' E 004°16'0 0.0
2019-Jun-08 07:59N 52°06' E 004°16'0 0.0
2019-Jun-08 07:29N 52°06' E 004°16'0 0.0
2019-Jun-08 06:59N 52°06' E 004°16'0 0.0
2019-Jun-08 06:29N 52°06' E 004°16'0 0.0
2019-Jun-08 05:59N 52°06' E 004°16'0 0.0
2019-Jun-08 05:29N 52°06' E 004°16'0 0.0
2019-Jun-08 04:59N 52°06' E 004°16'0 0.0
2019-Jun-08 04:29N 52°06' E 004°16'0 0.0
2019-Jun-08 03:59N 52°06' E 004°16'0 0.0
2019-Jun-08 03:29N 52°06' E 004°16'0 0.0
2019-Jun-08 02:59N 52°06' E 004°16'0 0.0
2019-Jun-08 02:29N 52°06' E 004°16'0 0.0
2019-Jun-08 01:59N 52°06' E 004°16'0 0.0
2019-Jun-08 01:29N 52°06' E 004°16'0 0.0
2019-Jun-08 00:59N 52°06' E 004°16'0 0.0
2019-Jun-08 00:29N 52°06' E 004°16'0 0.0
2019-Jun-07 23:59N 52°06' E 004°16'0 0.0
2019-Jun-07 23:29N 52°06' E 004°16'0 0.0
2019-Jun-07 22:59N 52°06' E 004°16'0 0.0
2019-Jun-07 22:29N 52°06' E 004°16'0 0.0
2019-Jun-07 21:59N 52°06' E 004°16'0 0.0
2019-Jun-07 20:59N 52°06' E 004°16'0 0.0
2019-Jun-07 20:29N 52°06' E 004°16'0 0.0
2019-Jun-07 19:59N 52°06' E 004°16'0 0.0
2019-Jun-07 19:29N 52°06' E 004°16'0 0.0
2019-Jun-07 18:59N 52°06' E 004°16'0 0.0
2019-Jun-07 18:29N 52°06' E 004°16'0 0.0
2019-Jun-07 17:59N 52°06' E 004°16'0 0.0
2019-Jun-07 17:29N 52°06' E 004°16'0 0.0
2019-Jun-07 16:59N 52°06' E 004°16'0 0.0
2019-Jun-07 16:29N 52°06' E 004°16'0 0.0
2019-Jun-07 15:59N 52°06' E 004°16'0 0.0
2019-Jun-07 15:29N 52°06' E 004°16'0 0.0
2019-Jun-07 14:59N 52°06' E 004°16'0 0.0
2019-Jun-07 14:29N 52°06' E 004°16'0 0.0
2019-Jun-07 13:59N 52°06' E 004°16'0 0.0
2019-Jun-07 13:29N 52°06' E 004°16'0 0.0
2019-Jun-07 12:59N 52°06' E 004°16'0 0.0
2019-Jun-07 12:29N 52°06' E 004°16'0 0.0
2019-Jun-07 11:59N 52°06' E 004°16'0 0.0
2019-Jun-07 11:29N 52°06' E 004°16'0 0.0
2019-Jun-07 10:59N 52°06' E 004°16'0 0.0
2019-Jun-07 10:29N 52°06' E 004°16'0 0.0
2019-Jun-07 09:59N 52°06' E 004°16'0 0.0
2019-Jun-07 09:29N 52°06' E 004°16'0 0.0
2019-Jun-07 08:59N 52°06' E 004°16'0 0.0
2019-Jun-07 08:29N 52°06' E 004°16'0 0.0
2019-Jun-07 07:59N 52°06' E 004°16'0 0.0
2019-Jun-07 07:29N 52°06' E 004°16'0 0.0
2019-Jun-07 06:59N 52°06' E 004°16'0 0.0
2019-Jun-07 06:26N 52°06' E 004°16'0 0.0
2019-Jun-07 05:59N 52°06' E 004°16'0 0.0
2019-Jun-07 05:29N 52°06' E 004°16'0 0.0
2019-Jun-07 04:59N 52°06' E 004°16'0 0.0
2019-Jun-07 04:29N 52°06' E 004°16'0 0.0
2019-Jun-07 03:56N 52°06' E 004°16'0 0.0
2019-Jun-07 03:29N 52°06' E 004°16'0 0.0
2019-Jun-07 02:59N 52°06' E 004°16'0 0.0
2019-Jun-07 02:29N 52°06' E 004°16'0 0.0
2019-Jun-07 01:59N 52°06' E 004°16'0 0.0
2019-Jun-07 01:29N 52°06' E 004°16'0 0.0
2019-Jun-07 00:59N 52°06' E 004°16'0 0.0
2019-Jun-07 00:29N 52°06' E 004°16'0 0.0
2019-Jun-06 23:59N 52°06' E 004°16'0 0.0
2019-Jun-06 23:29N 52°06' E 004°16'0 0.0
2019-Jun-06 22:59N 52°06' E 004°16'  
Track history (hours):
 
Tides and Currents Weather Stations Pressure Air Temp Water Temp Dewpoint Dewpoint Depression Visibility Wind Speed Wind Dir Waves Ship Positions

Oceanographic research ship Zirfaea (Netherlands)

Detailed information on ship capabilities available from University of Delaware's Ocean Information Center.

Last reported at 2019-Jun-19 21:26 UTC. Time now 2019-Jun-19 21:47 UTC.
Position N 51°54' E 003°38'.

Length 63 m; draft 3.9 m.

Type: Law enforcement. MMSI: 246096000.

Date/timePositionNaut miles runAvg speedWind from/ knotsBaromVisibWave heightAir tempDewpointWater temp
2019-Jun-19 21:26N 51°54' E 003°38'0 0.0
2019-Jun-19 19:51N 51°54' E 003°38'0 0.1
2019-Jun-19 19:26N 51°54' E 003°38'0 0.0
2019-Jun-19 18:56N 51°54' E 003°38'0 0.0
2019-Jun-19 18:29N 51°54' E 003°38'0 0.0
2019-Jun-19 17:50N 51°54' E 003°38'0 0.0
2019-Jun-19 17:20N 51°54' E 003°38'2 4.1
2019-Jun-19 16:57N 51°56' E 003°38'3 6.4
2019-Jun-19 16:30N 51°59' E 003°36'3 6.2
2019-Jun-19 16:00N 51°60' E 003°32'5 8.9
2019-Jun-19 15:27N 51°59' E 003°24'1 2.7
2019-Jun-19 15:00N 52°01' E 003°23'0 0.7
2019-Jun-19 14:30N 52°00' E 003°24'1 1.5
2019-Jun-19 14:00N 52°01' E 003°24'0 0.8
2019-Jun-19 13:30N 52°01' E 003°24'4 8.0
2019-Jun-19 12:58N 51°57' E 003°23'8 9.4
2019-Jun-19 12:04N 51°49' E 003°18'2 8.9
2019-Jun-19 11:49N 51°46' E 003°17'4 8.7
2019-Jun-19 11:20N 51°42' E 003°18'3 4.3
2019-Jun-19 10:37N 51°39' E 003°18'0 0.2
2019-Jun-19 10:17N 51°39' E 003°18'0 0.7
2019-Jun-19 09:51N 51°39' E 003°17'1 1.3
2019-Jun-19 09:11N 51°40' E 003°17'1 1.9
2019-Jun-19 08:47N 51°39' E 003°17'1 4.9
2019-Jun-19 08:30N 51°39' E 003°15'3 5.0
2019-Jun-19 07:57N 51°37' E 003°15'4 9.2
2019-Jun-19 07:30N 51°33' E 003°12'2 3.5
2019-Jun-19 07:00N 51°32' E 003°09'1 0.5
2019-Jun-19 05:43N 51°33' E 003°10'2 6.3
2019-Jun-19 05:25N 51°34' E 003°12'3 6.1
2019-Jun-19 04:59N 51°36' E 003°14'6 8.1
2019-Jun-19 04:15N 51°41' E 003°21'4 7.6
2019-Jun-19 03:44N 51°43' E 003°25'2 7.0
2019-Jun-19 03:25N 51°45' E 003°28'0 0.8
2019-Jun-19 02:56N 51°45' E 003°29'0 0.3
2019-Jun-19 01:47N 51°45' E 003°28'0 0.1
2019-Jun-19 01:29N 51°45' E 003°28'1 3.0
2019-Jun-19 01:00N 51°44' E 003°27'1 2.3
2019-Jun-19 00:30N 51°43' E 003°26'1 1.2
2019-Jun-18 23:37N 51°42' E 003°25'0 0.7
2019-Jun-18 23:29N 51°42' E 003°24'0 0.4
2019-Jun-18 22:57N 51°42' E 003°24'0 0.2
2019-Jun-18 22:30N 51°42' E 003°24'1 0.6
2019-Jun-18 21:05N 51°43' E 003°25'0 0.9
2019-Jun-18 20:58N 51°43' E 003°25'1 2.0
2019-Jun-18 20:29N 51°43' E 003°26'1 2.2
2019-Jun-18 20:00N 51°44' E 003°27'1 1.9
2019-Jun-18 19:31N 51°45' E 003°28'2 3.1
2019-Jun-18 19:00N 51°46' E 003°26'2 3.3
2019-Jun-18 18:30N 51°46' E 003°23'1 1.6
2019-Jun-18 18:00N 51°46' E 003°22'1 2.4
2019-Jun-18 17:30N 51°45' E 003°20'0 0.5
2019-Jun-18 17:00N 51°45' E 003°20'0 0.7
2019-Jun-18 16:30N 51°45' E 003°21'0 0.6
2019-Jun-18 15:46N 51°45' E 003°20'2 7.5
2019-Jun-18 15:30N 51°46' E 003°19'4 8.7
2019-Jun-18 15:00N 51°50' E 003°16'2 3.8
2019-Jun-18 14:30N 51°52' E 003°15'0 0.9
2019-Jun-18 14:01N 51°52' E 003°15'0 0.6
2019-Jun-18 13:30N 51°52' E 003°15'3 5.4
2019-Jun-18 13:00N 51°52' E 003°11'4 8.2
2019-Jun-18 12:30N 51°52' E 003°04'4 8.1
2019-Jun-18 12:01N 51°54' E 002°59'3 6.5
2019-Jun-18 11:30N 51°55' E 002°54'0 0.6
2019-Jun-18 11:00N 51°55' E 002°54'1 1.6
2019-Jun-18 10:30N 51°55' E 002°55'3 6.9
2019-Jun-18 10:00N 51°54' E 003°00'0 0.4
2019-Jun-18 09:31N 51°54' E 003°01'0 0.9
2019-Jun-18 09:00N 51°54' E 003°01'1 1.8
2019-Jun-18 08:30N 51°55' E 003°00'611.0
2019-Jun-18 08:00N 51°60' E 003°01'2 4.9
2019-Jun-18 07:30N 52°02' E 003°03'1 1.3
2019-Jun-18 07:00N 52°02' E 003°02'0 0.8
2019-Jun-18 06:30N 52°02' E 003°02'1 1.5
2019-Jun-18 06:00N 52°02' E 003°03'0 0.7
2019-Jun-18 05:29N 52°02' E 003°03'2 4.1
2019-Jun-18 05:00N 52°02' E 003°06'2 4.6
2019-Jun-18 04:30N 52°02' E 003°10'2 4.4
2019-Jun-18 04:00N 52°01' E 003°14'2 3.2
2019-Jun-18 03:30N 52°01' E 003°16'0 0.1
2019-Jun-18 03:00N 52°01' E 003°16'0 0.0
2019-Jun-18 02:30N 52°01' E 003°16'0 0.0
2019-Jun-18 02:00N 52°01' E 003°16'0 0.1
2019-Jun-18 01:30N 52°01' E 003°16'0 0.2
2019-Jun-18 01:00N 52°01' E 003°16'0 0.4
2019-Jun-18 00:30N 52°01' E 003°16'0 1.0
2019-Jun-18 00:00N 52°01' E 003°16'0 0.6
2019-Jun-17 23:30N 52°01' E 003°16'1 1.1
2019-Jun-17 23:00N 52°01' E 003°16'0 0.7
2019-Jun-17 22:30N 52°00' E 003°15'0 0.2
2019-Jun-17 22:00N 52°00' E 003°15'0 0.2
2019-Jun-17 21:48N 52°00' E 003°15'0 0.2
2019-Jun-17 21:45N 52°00' E 003°15'0 0.2
2019-Jun-17 21:37N 52°00' E 003°15'0 0.4
2019-Jun-17 21:13N 52°00' E 003°15'0 0.4
2019-Jun-17 21:00N 52°00' E 003°16'0 0.4
2019-Jun-17 20:20N 51°60' E 003°16'1 0.6
2019-Jun-17 19:13N 51°59' E 003°16'37 1.9
2019-Jun-16 23:30N 52°06' E 004°16'0 0.0
2019-Jun-16 23:00N 52°06' E 004°16'0 0.0
2019-Jun-16 22:30N 52°06' E 004°16'0 0.0
2019-Jun-16 22:00N 52°06' E 004°16'0 0.0
2019-Jun-16 21:30N 52°06' E 004°16'0 0.0
2019-Jun-16 21:00N 52°06' E 004°16'0 0.0
2019-Jun-16 20:30N 52°06' E 004°16'0 0.0
2019-Jun-16 20:00N 52°06' E 004°16'0 0.0
2019-Jun-16 19:30N 52°06' E 004°16'0 0.0
2019-Jun-16 19:00N 52°06' E 004°16'0 0.0
2019-Jun-16 18:30N 52°06' E 004°16'0 0.0
2019-Jun-16 18:00N 52°06' E 004°16'0 0.0
2019-Jun-16 17:30N 52°06' E 004°16'0 0.0
2019-Jun-16 17:00N 52°06' E 004°16'0 0.0
2019-Jun-16 16:30N 52°06' E 004°16'0 0.0
2019-Jun-16 16:00N 52°06' E 004°16'0 0.0
2019-Jun-16 15:30N 52°06' E 004°16'0 0.0
2019-Jun-16 15:00N 52°06' E 004°16'0 0.0
2019-Jun-16 14:30N 52°06' E 004°16'0 0.0
2019-Jun-16 14:00N 52°06' E 004°16'0 0.0
2019-Jun-16 13:30N 52°06' E 004°16'0 0.0
2019-Jun-16 13:00N 52°06' E 004°16'0 0.0
2019-Jun-16 12:30N 52°06' E 004°16'0 0.0
2019-Jun-16 12:00N 52°06' E 004°16'0 0.0
2019-Jun-16 11:30N 52°06' E 004°16'0 0.0
2019-Jun-16 11:00N 52°06' E 004°16'0 0.0
2019-Jun-16 10:30N 52°06' E 004°16'0 0.0
2019-Jun-16 10:00N 52°06' E 004°16'0 0.0
2019-Jun-16 09:30N 52°06' E 004°16'0 0.0
2019-Jun-16 09:00N 52°06' E 004°16'0 0.0
2019-Jun-16 08:30N 52°06' E 004°16'0 0.0
2019-Jun-16 08:00N 52°06' E 004°16'0 0.0
2019-Jun-16 07:30N 52°06' E 004°16'0 0.0
2019-Jun-16 07:00N 52°06' E 004°16'0 0.0
2019-Jun-16 06:30N 52°06' E 004°16'0 0.0
2019-Jun-16 06:00N 52°06' E 004°16'0 0.0
2019-Jun-16 05:30N 52°06' E 004°16'0 0.0
2019-Jun-16 05:00N 52°06' E 004°16'0 0.0
2019-Jun-16 04:27N 52°06' E 004°16'0 0.0
2019-Jun-16 04:00N 52°06' E 004°16'0 0.0
2019-Jun-16 03:30N 52°06' E 004°16'0 0.0
2019-Jun-16 03:00N 52°06' E 004°16'0 0.0
2019-Jun-16 02:30N 52°06' E 004°16'0 0.0
2019-Jun-16 02:00N 52°06' E 004°16'0 0.0
2019-Jun-16 01:30N 52°06' E 004°16'0 0.0
2019-Jun-16 01:00N 52°06' E 004°16'0 0.0
2019-Jun-16 00:30N 52°06' E 004°16'0 0.0
2019-Jun-16 00:00N 52°06' E 004°16'0 0.0
2019-Jun-15 23:30N 52°06' E 004°16'0 0.0
2019-Jun-15 23:00N 52°06' E 004°16'0 0.0
2019-Jun-15 22:30N 52°06' E 004°16'0 0.0
2019-Jun-15 22:00N 52°06' E 004°16'0 0.0
2019-Jun-15 21:30N 52°06' E 004°16'0 0.0
2019-Jun-15 21:00N 52°06' E 004°16'0 0.0
2019-Jun-15 20:30N 52°06' E 004°16'0 0.0
2019-Jun-15 20:00N 52°06' E 004°16'0 0.0
2019-Jun-15 19:30N 52°06' E 004°16'0 0.0
2019-Jun-15 19:00N 52°06' E 004°16'0 0.0
2019-Jun-15 18:30N 52°06' E 004°16'0 0.0
2019-Jun-15 18:00N 52°06' E 004°16'0 0.0
2019-Jun-15 17:30N 52°06' E 004°16'0 0.0
2019-Jun-15 17:00N 52°06' E 004°16'0 0.0
2019-Jun-15 16:30N 52°06' E 004°16'0 0.0
2019-Jun-15 16:00N 52°06' E 004°16'0 0.0
2019-Jun-15 15:30N 52°06' E 004°16'0 0.0
2019-Jun-15 15:00N 52°06' E 004°16'0 0.0
2019-Jun-15 14:30N 52°06' E 004°16'0 0.0
2019-Jun-15 14:00N 52°06' E 004°16'0 0.0
2019-Jun-15 13:30N 52°06' E 004°16'0 0.0
2019-Jun-15 13:00N 52°06' E 004°16'0 0.0
2019-Jun-15 12:30N 52°06' E 004°16'0 0.0
2019-Jun-15 12:00N 52°06' E 004°16'0 0.0
2019-Jun-15 11:30N 52°06' E 004°16'0 0.0
2019-Jun-15 11:00N 52°06' E 004°16'0 0.0
2019-Jun-15 10:30N 52°06' E 004°16'0 0.0
2019-Jun-15 10:00N 52°06' E 004°16'0 0.0
2019-Jun-15 09:30N 52°06' E 004°16'0 0.0
2019-Jun-15 09:00N 52°06' E 004°16'0 0.0
2019-Jun-15 08:30N 52°06' E 004°16'0 0.0
2019-Jun-15 08:00N 52°06' E 004°16'0 0.0
2019-Jun-15 07:30N 52°06' E 004°16'0 0.0
2019-Jun-15 07:00N 52°06' E 004°16'0 0.0
2019-Jun-15 06:30N 52°06' E 004°16'0 0.0
2019-Jun-15 06:00N 52°06' E 004°16'0 0.0
2019-Jun-15 05:30N 52°06' E 004°16'0 0.0
2019-Jun-15 05:00N 52°06' E 004°16'0 0.0
2019-Jun-15 04:30N 52°06' E 004°16'0 0.0
2019-Jun-15 04:00N 52°06' E 004°16'0 0.0
2019-Jun-15 03:30N 52°06' E 004°16'0 0.0
2019-Jun-15 03:00N 52°06' E 004°16'0 0.0
2019-Jun-15 02:30N 52°06' E 004°16'0 0.0
2019-Jun-15 02:00N 52°06' E 004°16'0 0.0
2019-Jun-15 01:30N 52°06' E 004°16'0 0.0
2019-Jun-15 01:00N 52°06' E 004°16'0 0.0
2019-Jun-15 00:30N 52°06' E 004°16'0 0.0
2019-Jun-15 00:00N 52°06' E 004°16'0 0.0
2019-Jun-14 23:30N 52°06' E 004°16'0 0.0
2019-Jun-14 23:00N 52°06' E 004°16'0 0.0
2019-Jun-14 22:30N 52°06' E 004°16'0 0.0
2019-Jun-14 22:00N 52°06' E 004°16'0 0.0
2019-Jun-14 21:27N 52°06' E 004°16'0 0.0
2019-Jun-14 21:00N 52°06' E 004°16'0 0.0
2019-Jun-14 20:30N 52°06' E 004°16'0 0.0
2019-Jun-14 20:00N 52°06' E 004°16'0 0.0
2019-Jun-14 19:30N 52°06' E 004°16'0 0.0
2019-Jun-14 19:00N 52°06' E 004°16'0 0.0
2019-Jun-14 18:30N 52°06' E 004°16'0 0.0
2019-Jun-14 18:00N 52°06' E 004°16'0 0.0
2019-Jun-14 17:30N 52°06' E 004°16'0 0.0
2019-Jun-14 17:00N 52°06' E 004°16'0 0.0
2019-Jun-14 16:30N 52°06' E 004°16'0 0.0
2019-Jun-14 16:00N 52°06' E 004°16'0 0.0
2019-Jun-14 15:30N 52°06' E 004°16'0 0.0
2019-Jun-14 15:00N 52°06' E 004°16'0 0.0
2019-Jun-14 14:30N 52°06' E 004°16'0 0.0
2019-Jun-14 14:00N 52°06' E 004°16'0 0.0
2019-Jun-14 13:30N 52°06' E 004°16'0 0.0
2019-Jun-14 13:00N 52°06' E 004°16'0 0.0
2019-Jun-14 12:30N 52°06' E 004°16'0 0.0
2019-Jun-14 12:00N 52°06' E 004°16'0 0.0
2019-Jun-14 11:30N 52°06' E 004°16'0 0.0
2019-Jun-14 11:00N 52°06' E 004°16'0 0.0
2019-Jun-14 10:30N 52°06' E 004°16'0 0.0
2019-Jun-14 10:00N 52°06' E 004°16'0 0.1
2019-Jun-14 09:30N 52°06' E 004°16'3 5.8
2019-Jun-14 09:00N 52°05' E 004°11'5 9.4
2019-Jun-14 08:30N 52°03' E 004°05'5 9.5
2019-Jun-14 08:00N 51°60' E 003°59'4 7.9
2019-Jun-14 07:30N 51°57' E 003°55'4 8.7
2019-Jun-14 07:00N 51°53' E 003°52'1 2.8
2019-Jun-14 06:30N 51°52' E 003°50'2 3.1
2019-Jun-14 06:00N 51°51' E 003°49'4 8.3
2019-Jun-14 05:30N 51°49' E 003°43'10 7.9
2019-Jun-14 04:15N 51°43' E 003°30'6 6.8
2019-Jun-14 03:21N 51°38' E 003°23'410.2
2019-Jun-14 03:00N 51°35' E 003°24'6 4.1
2019-Jun-14 01:39N 51°38' E 003°17'2 9.0
2019-Jun-14 01:24N 51°39' E 003°14'2 3.6
2019-Jun-14 00:53N 51°41' E 003°12'7 8.4
2019-Jun-14 00:00N 51°47' E 003°06'36 5.4
2019-Jun-13 17:18N 52°23' E 003°12'67 7.4
2019-Jun-13 08:11N 53°12' E 004°29'2 9.8
2019-Jun-13 08:01N 53°11' E 004°32'19 9.0
2019-Jun-13 05:52N 53°24' E 004°57'3 9.1
2019-Jun-13 05:31N 53°26' E 005°01'4 6.5
2019-Jun-13 04:56N 53°28' E 005°06'58 3.6
2019-Jun-12 12:51N 54°12' E 006°09'16 6.5
2019-Jun-12 10:20N 53°57' E 006°18'15 7.3
2019-Jun-12 08:14N 53°45' E 006°03'7 8.2
2019-Jun-12 07:22N 53°40' E 005°54'4 9.4
2019-Jun-12 06:58N 53°39' E 005°48'9 9.6
2019-Jun-12 06:02N 53°36' E 005°33'1 9.9
2019-Jun-12 05:53N 53°36' E 005°31'510.0
2019-Jun-12 05:20N 53°34' E 005°22'1310.4
2019-Jun-12 04:05N 53°29' E 005°02'311.1
2019-Jun-12 03:46N 53°27' E 004°57'2010.7
2019-Jun-12 01:55N 53°12' E 004°35'511.1
2019-Jun-12 01:30N 53°08' E 004°31'510.8
2019-Jun-12 01:00N 53°04' E 004°27'611.2
2019-Jun-12 00:29N 52°59' E 004°22'611.1
2019-Jun-11 23:56N 52°53' E 004°18'511.1
2019-Jun-11 23:28N 52°49' E 004°12'511.1
2019-Jun-11 23:00N 52°46' E 004°05'511.0
2019-Jun-11 22:30N 52°43' E 003°58'511.0
2019-Jun-11 22:00N 52°40' E 003°50'611.0
2019-Jun-11 21:27N 52°38' E 003°41'611.0
2019-Jun-11 20:57N 52°35' E 003°33'1 2.2
2019-Jun-11 20:30N 52°34' E 003°33'5 8.3
2019-Jun-11 19:53N 52°32' E 003°41'3 7.7
2019-Jun-11 19:26N 52°30' E 003°46'3 7.8
2019-Jun-11 19:00N 52°29' E 003°51'4 8.2
2019-Jun-11 18:30N 52°26' E 003°56'4 8.1
2019-Jun-11 18:00N 52°24' E 004°02'4 8.0
2019-Jun-11 17:30N 52°22' E 004°07'2 4.8
2019-Jun-11 17:00N 52°20' E 004°10'0 0.1
2019-Jun-11 16:30N 52°20' E 004°10'3 6.8
2019-Jun-11 16:00N 52°19' E 004°15'2 4.6
2019-Jun-11 15:31N 52°18' E 004°19'4 8.0
2019-Jun-11 15:01N 52°16' E 004°24'1 1.6
2019-Jun-11 14:30N 52°15' E 004°23'5 9.2
2019-Jun-11 14:00N 52°11' E 004°20'5 9.5
2019-Jun-11 13:30N 52°07' E 004°15'1 2.3
2019-Jun-11 13:00N 52°06' E 004°16'0 0.0
2019-Jun-11 12:30N 52°06' E 004°16'0 0.0
2019-Jun-11 12:00N 52°06' E 004°16'0 0.1
2019-Jun-11 11:30N 52°06' E 004°16'4 7.3
2019-Jun-11 11:01N 52°10' E 004°16'4 7.1
2019-Jun-11 10:30N 52°12' E 004°20'4 8.1
2019-Jun-11 10:01N 52°16' E 004°24'1 1.1
2019-Jun-11 09:31N 52°16' E 004°25'0 0.3
2019-Jun-11 09:01N 52°16' E 004°24'4 7.8
2019-Jun-11 08:30N 52°13' E 004°21'510.2
2019-Jun-11 08:00N 52°08' E 004°16'2 4.6
2019-Jun-11 07:29N 52°06' E 004°16'0 0.0
2019-Jun-11 06:59N 52°06' E 004°16'0 0.0
2019-Jun-11 06:29N 52°06' E 004°16'0 0.0
2019-Jun-11 05:59N 52°06' E 004°16'0 0.0
2019-Jun-11 05:29N 52°06' E 004°16'0 0.0
2019-Jun-11 04:59N 52°06' E 004°16'0 0.0
2019-Jun-11 04:29N 52°06' E 004°16'0 0.0
2019-Jun-11 03:59N 52°06' E 004°16'0 0.0
2019-Jun-11 03:29N 52°06' E 004°16'0 0.0
2019-Jun-11 02:59N 52°06' E 004°16'0 0.0
2019-Jun-11 02:29N 52°06' E 004°16'0 0.0
2019-Jun-11 01:59N 52°06' E 004°16'0 0.0
2019-Jun-11 01:29N 52°06' E 004°16'0 0.0
2019-Jun-11 00:59N 52°06' E 004°16'0 0.0
2019-Jun-11 00:26N 52°06' E 004°16'0 0.0
2019-Jun-10 23:59N 52°06' E 004°16'0 0.0
2019-Jun-10 23:29N 52°06' E 004°16'0 0.0
2019-Jun-10 22:59N 52°06' E 004°16'0 0.0
2019-Jun-10 22:29N 52°06' E 004°16'0 0.0
2019-Jun-10 21:59N 52°06' E 004°16'0 0.0
2019-Jun-10 21:29N 52°06' E 004°16'0 0.0
2019-Jun-10 20:59N 52°06' E 004°16'0 0.0
2019-Jun-10 20:26N 52°06' E 004°16'0 0.0
2019-Jun-10 19:59N 52°06' E 004°16'0 0.0
2019-Jun-10 19:29N 52°06' E 004°16'0 0.0
2019-Jun-10 18:59N 52°06' E 004°16'0 0.0
2019-Jun-10 18:29N 52°06' E 004°16'0 0.0
2019-Jun-10 17:59N 52°06' E 004°16'0 0.0
2019-Jun-10 17:29N 52°06' E 004°16'0 0.0
2019-Jun-10 16:59N 52°06' E 004°16'0 0.0
2019-Jun-10 16:29N 52°06' E 004°16'0 0.0
2019-Jun-10 15:56N 52°06' E 004°16'0 0.0
2019-Jun-10 15:29N 52°06' E 004°16'0 0.0
2019-Jun-10 14:59N 52°06' E 004°16'0 0.0
2019-Jun-10 14:29N 52°06' E 004°16'0 0.0
2019-Jun-10 13:59N 52°06' E 004°16'0 0.0
2019-Jun-10 13:29N 52°06' E 004°16'0 0.0
2019-Jun-10 12:59N 52°06' E 004°16'0 0.0
2019-Jun-10 12:29N 52°06' E 004°16'0 0.0
2019-Jun-10 11:59N 52°06' E 004°16'0 0.0
2019-Jun-10 11:29N 52°06' E 004°16'0 0.0
2019-Jun-10 10:59N 52°06' E 004°16'0 0.0
2019-Jun-10 10:29N 52°06' E 004°16'0 0.0
2019-Jun-10 09:59N 52°06' E 004°16'0 0.0
2019-Jun-10 09:26N 52°06' E 004°16'0 0.0
2019-Jun-10 08:59N 52°06' E 004°16'0 0.0
2019-Jun-10 08:29N 52°06' E 004°16'0 0.0
2019-Jun-10 07:59N 52°06' E 004°16'0 0.0
2019-Jun-10 07:29N 52°06' E 004°16'0 0.0
2019-Jun-10 06:59N 52°06' E 004°16'0 0.0
2019-Jun-10 06:29N 52°06' E 004°16'0 0.0
2019-Jun-10 05:59N 52°06' E 004°16'0 0.0
2019-Jun-10 05:29N 52°06' E 004°16'0 0.0
2019-Jun-10 04:59N 52°06' E 004°16'0 0.0
2019-Jun-10 04:29N 52°06' E 004°16'0 0.0
2019-Jun-10 03:59N 52°06' E 004°16'0 0.0
2019-Jun-10 03:29N 52°06' E 004°16'0 0.0
2019-Jun-10 02:59N 52°06' E 004°16'0 0.0
2019-Jun-10 02:29N 52°06' E 004°16'0 0.0
2019-Jun-10 01:59N 52°06' E 004°16'0 0.0
2019-Jun-10 01:29N 52°06' E 004°16'0 0.0
2019-Jun-10 00:59N 52°06' E 004°16'0 0.0
2019-Jun-10 00:29N 52°06' E 004°16'0 0.0
2019-Jun-09 23:59N 52°06' E 004°16'0 0.0
2019-Jun-09 23:29N 52°06' E 004°16'0 0.0
2019-Jun-09 22:59N 52°06' E 004°16'0 0.0
2019-Jun-09 22:29N 52°06' E 004°16'0 0.0
2019-Jun-09 21:59N 52°06' E 004°16'0 0.0
2019-Jun-09 21:29N 52°06' E 004°16'0 0.0
2019-Jun-09 20:59N 52°06' E 004°16'0 0.0
2019-Jun-09 20:29N 52°06' E 004°16'0 0.0
2019-Jun-09 19:59N 52°06' E 004°16'0 0.0
2019-Jun-09 19:29N 52°06' E 004°16'0 0.0
2019-Jun-09 18:56N 52°06' E 004°16'0 0.0
2019-Jun-09 18:29N 52°06' E 004°16'0 0.0
2019-Jun-09 17:59N 52°06' E 004°16'0 0.0
2019-Jun-09 17:29N 52°06' E 004°16'0 0.0
2019-Jun-09 16:59N 52°06' E 004°16'0 0.0
2019-Jun-09 16:29N 52°06' E 004°16'0 0.0
2019-Jun-09 15:56N 52°06' E 004°16'0 0.0
2019-Jun-09 15:29N 52°06' E 004°16'0 0.0
2019-Jun-09 14:59N 52°06' E 004°16'0 0.0
2019-Jun-09 14:29N 52°06' E 004°16'0 0.0
2019-Jun-09 13:59N 52°06' E 004°16'0 0.0
2019-Jun-09 13:29N 52°06' E 004°16'0 0.0
2019-Jun-09 12:59N 52°06' E 004°16'0 0.0
2019-Jun-09 12:29N 52°06' E 004°16'0 0.0
2019-Jun-09 11:59N 52°06' E 004°16'0 0.0
2019-Jun-09 11:29N 52°06' E 004°16'0 0.0
2019-Jun-09 10:59N 52°06' E 004°16'0 0.0
2019-Jun-09 10:29N 52°06' E 004°16'0 0.0
2019-Jun-09 09:59N 52°06' E 004°16'0 0.0
2019-Jun-09 09:29N 52°06' E 004°16'0 0.0
2019-Jun-09 08:59N 52°06' E 004°16'0 0.0
2019-Jun-09 08:29N 52°06' E 004°16'0 0.0
2019-Jun-09 07:59N 52°06' E 004°16'0 0.0
2019-Jun-09 07:29N 52°06' E 004°16'0 0.0
2019-Jun-09 06:59N 52°06' E 004°16'0 0.0
2019-Jun-09 06:29N 52°06' E 004°16'0 0.0
2019-Jun-09 05:59N 52°06' E 004°16'0 0.0
2019-Jun-09 05:29N 52°06' E 004°16'0 0.0
2019-Jun-09 04:59N 52°06' E 004°16'0 0.0
2019-Jun-09 03:59N 52°06' E 004°16'0 0.0
2019-Jun-09 03:29N 52°06' E 004°16'0 0.0
2019-Jun-09 02:59N 52°06' E 004°16'0 0.0
2019-Jun-09 02:29N 52°06' E 004°16'0 0.0
2019-Jun-09 01:59N 52°06' E 004°16'0 0.0
2019-Jun-09 01:29N 52°06' E 004°16'0 0.0
2019-Jun-09 00:59N 52°06' E 004°16'0 0.0
2019-Jun-09 00:29N 52°06' E 004°16'0 0.0
2019-Jun-08 23:56N 52°06' E 004°16'0 0.0
2019-Jun-08 23:29N 52°06' E 004°16'0 0.0
2019-Jun-08 22:56N 52°06' E 004°16'0 0.0
2019-Jun-08 22:29N 52°06' E 004°16'0 0.0
2019-Jun-08 21:59N 52°06' E 004°16'0 0.0
2019-Jun-08 21:29N 52°06' E 004°16'0 0.0
2019-Jun-08 20:59N 52°06' E 004°16'0 0.0
2019-Jun-08 20:29N 52°06' E 004°16'0 0.0
2019-Jun-08 19:59N 52°06' E 004°16'0 0.0
2019-Jun-08 19:29N 52°06' E 004°16'0 0.0
2019-Jun-08 18:59N 52°06' E 004°16'0 0.0
2019-Jun-08 18:29N 52°06' E 004°16'0 0.0
2019-Jun-08 17:59N 52°06' E 004°16'0 0.0
2019-Jun-08 17:29N 52°06' E 004°16'0 0.0
2019-Jun-08 16:59N 52°06' E 004°16'0 0.0
2019-Jun-08 16:29N 52°06' E 004°16'0 0.0
2019-Jun-08 15:59N 52°06' E 004°16'0 0.0
2019-Jun-08 15:29N 52°06' E 004°16'0 0.0
2019-Jun-08 14:59N 52°06' E 004°16'0 0.0
2019-Jun-08 14:29N 52°06' E 004°16'0 0.0
2019-Jun-08 13:59N 52°06' E 004°16'0 0.0
2019-Jun-08 13:29N 52°06' E 004°16'0 0.0
2019-Jun-08 12:59N 52°06' E 004°16'0 0.0
2019-Jun-08 12:29N 52°06' E 004°16'0 0.0
2019-Jun-08 11:59N 52°06' E 004°16'0 0.0
2019-Jun-08 11:29N 52°06' E 004°16'0 0.0
2019-Jun-08 10:59N 52°06' E 004°16'0 0.0
2019-Jun-08 10:29N 52°06' E 004°16'0 0.0
2019-Jun-08 09:59N 52°06' E 004°16'0 0.0
2019-Jun-08 09:29N 52°06' E 004°16'0 0.0
2019-Jun-08 08:59N 52°06' E 004°16'0 0.0
2019-Jun-08 08:29N 52°06' E 004°16'0 0.0
2019-Jun-08 07:59N 52°06' E 004°16'0 0.0
2019-Jun-08 07:29N 52°06' E 004°16'0 0.0
2019-Jun-08 06:59N 52°06' E 004°16'0 0.0
2019-Jun-08 06:29N 52°06' E 004°16'0 0.0
2019-Jun-08 05:59N 52°06' E 004°16'0 0.0
2019-Jun-08 05:29N 52°06' E 004°16'0 0.0
2019-Jun-08 04:59N 52°06' E 004°16'0 0.0
2019-Jun-08 04:29N 52°06' E 004°16'0 0.0
2019-Jun-08 03:59N 52°06' E 004°16'0 0.0
2019-Jun-08 03:29N 52°06' E 004°16'0 0.0
2019-Jun-08 02:59N 52°06' E 004°16'0 0.0
2019-Jun-08 02:29N 52°06' E 004°16'0 0.0
2019-Jun-08 01:59N 52°06' E 004°16'0 0.0
2019-Jun-08 01:29N 52°06' E 004°16'0 0.0
2019-Jun-08 00:59N 52°06' E 004°16'0 0.0
2019-Jun-08 00:29N 52°06' E 004°16'0 0.0
2019-Jun-07 23:59N 52°06' E 004°16'0 0.0
2019-Jun-07 23:29N 52°06' E 004°16'0 0.0
2019-Jun-07 22:59N 52°06' E 004°16'0 0.0
2019-Jun-07 22:29N 52°06' E 004°16'0 0.0
2019-Jun-07 21:59N 52°06' E 004°16'0 0.0
2019-Jun-07 20:59N 52°06' E 004°16'0 0.0
2019-Jun-07 20:29N 52°06' E 004°16'0 0.0
2019-Jun-07 19:59N 52°06' E 004°16'0 0.0
2019-Jun-07 19:29N 52°06' E 004°16'0 0.0
2019-Jun-07 18:59N 52°06' E 004°16'0 0.0
2019-Jun-07 18:29N 52°06' E 004°16'0 0.0
2019-Jun-07 17:59N 52°06' E 004°16'0 0.0
2019-Jun-07 17:29N 52°06' E 004°16'0 0.0
2019-Jun-07 16:59N 52°06' E 004°16'0 0.0
2019-Jun-07 16:29N 52°06' E 004°16'0 0.0
2019-Jun-07 15:59N 52°06' E 004°16'0 0.0
2019-Jun-07 15:29N 52°06' E 004°16'0 0.0
2019-Jun-07 14:59N 52°06' E 004°16'0 0.0
2019-Jun-07 14:29N 52°06' E 004°16'0 0.0
2019-Jun-07 13:59N 52°06' E 004°16'0 0.0
2019-Jun-07 13:29N 52°06' E 004°16'0 0.0
2019-Jun-07 12:59N 52°06' E 004°16'0 0.0
2019-Jun-07 12:29N 52°06' E 004°16'0 0.0
2019-Jun-07 11:59N 52°06' E 004°16'0 0.0
2019-Jun-07 11:29N 52°06' E 004°16'0 0.0
2019-Jun-07 10:59N 52°06' E 004°16'0 0.0
2019-Jun-07 10:29N 52°06' E 004°16'0 0.0
2019-Jun-07 09:59N 52°06' E 004°16'0 0.0
2019-Jun-07 09:29N 52°06' E 004°16'0 0.0
2019-Jun-07 08:59N 52°06' E 004°16'0 0.0
2019-Jun-07 08:29N 52°06' E 004°16'0 0.0
2019-Jun-07 07:59N 52°06' E 004°16'0 0.0
2019-Jun-07 07:29N 52°06' E 004°16'0 0.0
2019-Jun-07 06:59N 52°06' E 004°16'0 0.0
2019-Jun-07 06:26N 52°06' E 004°16'0 0.0
2019-Jun-07 05:59N 52°06' E 004°16'0 0.0
2019-Jun-07 05:29N 52°06' E 004°16'0 0.0
2019-Jun-07 04:59N 52°06' E 004°16'0 0.0
2019-Jun-07 04:29N 52°06' E 004°16'0 0.0
2019-Jun-07 03:56N 52°06' E 004°16'0 0.0
2019-Jun-07 03:29N 52°06' E 004°16'0 0.0
2019-Jun-07 02:59N 52°06' E 004°16'0 0.0
2019-Jun-07 02:29N 52°06' E 004°16'0 0.0
2019-Jun-07 01:59N 52°06' E 004°16'0 0.0
2019-Jun-07 01:29N 52°06' E 004°16'0 0.0
2019-Jun-07 00:59N 52°06' E 004°16'0 0.0
2019-Jun-07 00:29N 52°06' E 004°16'0 0.0
2019-Jun-06 23:59N 52°06' E 004°16'0 0.0
2019-Jun-06 23:29N 52°06' E 004°16'0 0.0
2019-Jun-06 22:59N 52°06' E 004°16'  

Dump ship's entire track history